Aviation Digital Data Service (ADDS)

Output produced by METARs form (0247 UTC 22 April 2019)
found at http://www.aviationweather.gov/metar/data/
 
METAR text: LQSA 220200Z VRB01KT CAVOK 04/04 Q1019
Conditions at: LQSA (SARAJEVO/BUTMIR , CS) observed 0200 UTC 22 April 2019
Temperature: 4.0°C (39°F)
Dewpoint: 4.0°C (39°F) [RH = 100%]
Pressure (altimeter): 30.09 inches Hg (1019.0 mb)
Winds: variable direction winds at 1 MPH (1 knots; 0.5 m/s)
Visibility: 6 or more miles (10+ km)
Ceiling: ceiling and visibility are OK
Clouds: unknown
Weather: no significant weather observed at this time

METAR text: LQSA 220100Z VRB01KT CAVOK 05/05 Q1019
Conditions at: LQSA (SARAJEVO/BUTMIR , CS) observed 0100 UTC 22 April 2019
Temperature: 5.0°C (41°F)
Dewpoint: 5.0°C (41°F) [RH = 100%]
Pressure (altimeter): 30.09 inches Hg (1019.0 mb)
Winds: variable direction winds at 1 MPH (1 knots; 0.5 m/s)
Visibility: 6 or more miles (10+ km)
Ceiling: ceiling and visibility are OK
Clouds: unknown
Weather: no significant weather observed at this time

METAR text: LQSA 220000Z VRB01KT CAVOK 06/05 Q1019
Conditions at: LQSA (SARAJEVO/BUTMIR , CS) observed 0000 UTC 22 April 2019
Temperature: 6.0°C (43°F)
Dewpoint: 5.0°C (41°F) [RH = 93%]
Pressure (altimeter): 30.09 inches Hg (1019.0 mb)
Winds: variable direction winds at 1 MPH (1 knots; 0.5 m/s)
Visibility: 6 or more miles (10+ km)
Ceiling: ceiling and visibility are OK
Clouds: unknown
Weather: no significant weather observed at this time

METAR text: LQSA 212300Z VRB01KT CAVOK 06/04 Q1020
Conditions at: LQSA (SARAJEVO/BUTMIR , CS) observed 2300 UTC 21 April 2019
Temperature: 6.0°C (43°F)
Dewpoint: 4.0°C (39°F) [RH = 87%]
Pressure (altimeter): 30.12 inches Hg (1020.0 mb)
Winds: variable direction winds at 1 MPH (1 knots; 0.5 m/s)
Visibility: 6 or more miles (10+ km)
Ceiling: ceiling and visibility are OK
Clouds: unknown
Weather: no significant weather observed at this time

METAR text: LQSA 212200Z VRB02KT CAVOK 07/03 Q1020
Conditions at: LQSA (SARAJEVO/BUTMIR , CS) observed 2200 UTC 21 April 2019
Temperature: 7.0°C (45°F)
Dewpoint: 3.0°C (37°F) [RH = 76%]
Pressure (altimeter): 30.12 inches Hg (1020.0 mb)
Winds: variable direction winds at 2 MPH (2 knots; 1.0 m/s)
Visibility: 6 or more miles (10+ km)
Ceiling: ceiling and visibility are OK
Clouds: unknown
Weather: no significant weather observed at this time

METAR text: LQSA 212100Z VRB01KT CAVOK 09/02 Q1020
Conditions at: LQSA (SARAJEVO/BUTMIR , CS) observed 2100 UTC 21 April 2019
Temperature: 9.0°C (48°F)
Dewpoint: 2.0°C (36°F) [RH = 61%]
Pressure (altimeter): 30.12 inches Hg (1020.0 mb)
Winds: variable direction winds at 1 MPH (1 knots; 0.5 m/s)
Visibility: 6 or more miles (10+ km)
Ceiling: ceiling and visibility are OK
Clouds: unknown
Weather: no significant weather observed at this time

METAR text: LQSA 212030Z 17003KT 130V210 CAVOK 10/02 Q1020
Conditions at: LQSA (SARAJEVO/BUTMIR , CS) observed 2030 UTC 21 April 2019
Temperature: 10.0°C (50°F)
Dewpoint: 2.0°C (36°F) [RH = 57%]
Pressure (altimeter): 30.12 inches Hg (1020.0 mb)
Winds: from the S (170 degrees) at 3 MPH (3 knots; 1.5 m/s)
Visibility: 6 or more miles (10+ km)
Ceiling: ceiling and visibility are OK
Clouds: unknown
Weather: no significant weather observed at this time

METAR text: LQSA 212000Z 14004KT 100V190 CAVOK 10/01 Q1020
Conditions at: LQSA (SARAJEVO/BUTMIR , CS) observed 2000 UTC 21 April 2019
Temperature: 10.0°C (50°F)
Dewpoint: 1.0°C (34°F) [RH = 53%]
Pressure (altimeter): 30.12 inches Hg (1020.0 mb)
Winds: from the SE (140 degrees) at 5 MPH (4 knots; 2.1 m/s)
Visibility: 6 or more miles (10+ km)
Ceiling: ceiling and visibility are OK
Clouds: unknown
Weather: no significant weather observed at this time

METAR text: LQSA 211930Z VRB02KT CAVOK 11/01 Q1019
Conditions at: LQSA (SARAJEVO/BUTMIR , CS) observed 1930 UTC 21 April 2019
Temperature: 11.0°C (52°F)
Dewpoint: 1.0°C (34°F) [RH = 50%]
Pressure (altimeter): 30.09 inches Hg (1019.0 mb)
Winds: variable direction winds at 2 MPH (2 knots; 1.0 m/s)
Visibility: 6 or more miles (10+ km)
Ceiling: ceiling and visibility are OK
Clouds: unknown
Weather: no significant weather observed at this time

METAR text: LQSA 211900Z 11004KT 030V150 CAVOK 12/01 Q1019
Conditions at: LQSA (SARAJEVO/BUTMIR , CS) observed 1900 UTC 21 April 2019
Temperature: 12.0°C (54°F)
Dewpoint: 1.0°C (34°F) [RH = 47%]
Pressure (altimeter): 30.09 inches Hg (1019.0 mb)
Winds: from the ESE (110 degrees) at 5 MPH (4 knots; 2.1 m/s)
Visibility: 6 or more miles (10+ km)
Ceiling: ceiling and visibility are OK
Clouds: unknown
Weather: no significant weather observed at this time

METAR text: LQSA 211830Z 07003KT 020V160 CAVOK 14/01 Q1019
Conditions at: LQSA (SARAJEVO/BUTMIR , CS) observed 1830 UTC 21 April 2019
Temperature: 14.0°C (57°F)
Dewpoint: 1.0°C (34°F) [RH = 41%]
Pressure (altimeter): 30.09 inches Hg (1019.0 mb)
Winds: from the ENE (70 degrees) at 3 MPH (3 knots; 1.5 m/s)
Visibility: 6 or more miles (10+ km)
Ceiling: ceiling and visibility are OK
Clouds: unknown
Weather: no significant weather observed at this time

METAR text: LQSA 211800Z 08003KT 040V100 CAVOK 14/01 Q1018
Conditions at: LQSA (SARAJEVO/BUTMIR , CS) observed 1800 UTC 21 April 2019
Temperature: 14.0°C (57°F)
Dewpoint: 1.0°C (34°F) [RH = 41%]
Pressure (altimeter): 30.06 inches Hg (1018.0 mb)
Winds: from the E (80 degrees) at 3 MPH (3 knots; 1.5 m/s)
Visibility: 6 or more miles (10+ km)
Ceiling: ceiling and visibility are OK
Clouds: unknown
Weather: no significant weather observed at this time

METAR text: LQSA 211730Z 28005KT CAVOK 16/01 Q1018
Conditions at: LQSA (SARAJEVO/BUTMIR , CS) observed 1730 UTC 21 April 2019
Temperature: 16.0°C (61°F)
Dewpoint: 1.0°C (34°F) [RH = 36%]
Pressure (altimeter): 30.06 inches Hg (1018.0 mb)
Winds: from the W (280 degrees) at 6 MPH (5 knots; 2.6 m/s)
Visibility: 6 or more miles (10+ km)
Ceiling: ceiling and visibility are OK
Clouds: unknown
Weather: no significant weather observed at this time

METAR text: LQSA 211700Z 23003KT CAVOK 18/M00 Q1018 NOSIG
Conditions at: LQSA (SARAJEVO/BUTMIR , CS) observed 1700 UTC 21 April 2019
Temperature: 18.0°C (64°F)
Dewpoint: 0.0°C (32°F) [RH = 30%]
Pressure (altimeter): 30.06 inches Hg (1018.0 mb)
Winds: from the SW (230 degrees) at 3 MPH (3 knots; 1.5 m/s)
Visibility: 6 or more miles (10+ km)
Ceiling: ceiling and visibility are OK
Clouds: unknown
Weather: no significant weather observed at this time

METAR text: LQSA 211630Z VRB02KT 9999 FEW055 20/M02 Q1018 NOSIG
Conditions at: LQSA (SARAJEVO/BUTMIR , CS) observed 1630 UTC 21 April 2019
Temperature: 20.0°C (68°F)
Dewpoint: -2.0°C (28°F) [RH = 23%]
Pressure (altimeter): 30.06 inches Hg (1018.0 mb)
Winds: variable direction winds at 2 MPH (2 knots; 1.0 m/s)
Visibility: 6 or more miles (10+ km)
Ceiling: at least 12,000 feet AGL
Clouds: few clouds at 5500 feet AGL
Weather: no significant weather observed at this time

METAR text: LQSA 211600Z VRB02KT 9999 FEW055 20/M06 Q1018 NOSIG
Conditions at: LQSA (SARAJEVO/BUTMIR , CS) observed 1600 UTC 21 April 2019
Temperature: 20.0°C (68°F)
Dewpoint: -6.0°C (21°F) [RH = 17%]
Pressure (altimeter): 30.06 inches Hg (1018.0 mb)
Winds: variable direction winds at 2 MPH (2 knots; 1.0 m/s)
Visibility: 6 or more miles (10+ km)
Ceiling: at least 12,000 feet AGL
Clouds: few clouds at 5500 feet AGL
Weather: no significant weather observed at this time

METAR text: LQSA 211530Z 35003KT 300V060 9999 FEW055 21/M03 Q1019 NOSIG
Conditions at: LQSA (SARAJEVO/BUTMIR , CS) observed 1530 UTC 21 April 2019
Temperature: 21.0°C (70°F)
Dewpoint: -3.0°C (27°F) [RH = 20%]
Pressure (altimeter): 30.09 inches Hg (1019.0 mb)
Winds: from the N (350 degrees) at 3 MPH (3 knots; 1.5 m/s)
Visibility: 6 or more miles (10+ km)
Ceiling: at least 12,000 feet AGL
Clouds: few clouds at 5500 feet AGL
Weather: no significant weather observed at this time

METAR text: LQSA 211500Z 35003KT 290V090 9999 FEW055 21/M05 Q1019 NOSIG
Conditions at: LQSA (SARAJEVO/BUTMIR , CS) observed 1500 UTC 21 April 2019
Temperature: 21.0°C (70°F)
Dewpoint: -5.0°C (23°F) [RH = 17%]
Pressure (altimeter): 30.09 inches Hg (1019.0 mb)
Winds: from the N (350 degrees) at 3 MPH (3 knots; 1.5 m/s)
Visibility: 6 or more miles (10+ km)
Ceiling: at least 12,000 feet AGL
Clouds: few clouds at 5500 feet AGL
Weather: no significant weather observed at this time

METAR text: LQSA 211430Z 02004KT 320V120 9999 FEW050 21/M07 Q1019 NOSIG
Conditions at: LQSA (SARAJEVO/BUTMIR , CS) observed 1430 UTC 21 April 2019
Temperature: 21.0°C (70°F)
Dewpoint: -7.0°C (19°F) [RH = 15%]
Pressure (altimeter): 30.09 inches Hg (1019.0 mb)
Winds: from the NNE (20 degrees) at 5 MPH (4 knots; 2.1 m/s)
Visibility: 6 or more miles (10+ km)
Ceiling: at least 12,000 feet AGL
Clouds: few clouds at 5000 feet AGL
Weather: no significant weather observed at this time

METAR text: LQSA 211400Z VRB04KT 9999 FEW050 22/M04 Q1019 NOSIG
Conditions at: LQSA (SARAJEVO/BUTMIR , CS) observed 1400 UTC 21 April 2019
Temperature: 22.0°C (72°F)
Dewpoint: -4.0°C (25°F) [RH = 17%]
Pressure (altimeter): 30.09 inches Hg (1019.0 mb)
Winds: variable direction winds at 5 MPH (4 knots; 2.1 m/s)
Visibility: 6 or more miles (10+ km)
Ceiling: at least 12,000 feet AGL
Clouds: few clouds at 5000 feet AGL
Weather: no significant weather observed at this time

METAR text: LQSA 211330Z VRB04KT 9999 FEW050 21/M07 Q1020 NOSIG
Conditions at: LQSA (SARAJEVO/BUTMIR , CS) observed 1330 UTC 21 April 2019
Temperature: 21.0°C (70°F)
Dewpoint: -7.0°C (19°F) [RH = 15%]
Pressure (altimeter): 30.12 inches Hg (1020.0 mb)
Winds: variable direction winds at 5 MPH (4 knots; 2.1 m/s)
Visibility: 6 or more miles (10+ km)
Ceiling: at least 12,000 feet AGL
Clouds: few clouds at 5000 feet AGL
Weather: no significant weather observed at this time

METAR text: LQSA 211300Z VRB04KT 9999 FEW050 21/M04 Q1020 NOSIG
Conditions at: LQSA (SARAJEVO/BUTMIR , CS) observed 1300 UTC 21 April 2019
Temperature: 21.0°C (70°F)
Dewpoint: -4.0°C (25°F) [RH = 18%]
Pressure (altimeter): 30.12 inches Hg (1020.0 mb)
Winds: variable direction winds at 5 MPH (4 knots; 2.1 m/s)
Visibility: 6 or more miles (10+ km)
Ceiling: at least 12,000 feet AGL
Clouds: few clouds at 5000 feet AGL
Weather: no significant weather observed at this time

METAR text: LQSA 211230Z VRB03KT 9999 FEW050 20/M00 Q1021 NOSIG
Conditions at: LQSA (SARAJEVO/BUTMIR , CS) observed 1230 UTC 21 April 2019
Temperature: 20.0°C (68°F)
Dewpoint: 0.0°C (32°F) [RH = 26%]
Pressure (altimeter): 30.15 inches Hg (1021.0 mb)
Winds: variable direction winds at 3 MPH (3 knots; 1.5 m/s)
Visibility: 6 or more miles (10+ km)
Ceiling: at least 12,000 feet AGL
Clouds: few clouds at 5000 feet AGL
Weather: no significant weather observed at this time

METAR text: LQSA 211200Z VRB03KT CAVOK 20/01 Q1021 NOSIG
Conditions at: LQSA (SARAJEVO/BUTMIR , CS) observed 1200 UTC 21 April 2019
Temperature: 20.0°C (68°F)
Dewpoint: 1.0°C (34°F) [RH = 28%]
Pressure (altimeter): 30.15 inches Hg (1021.0 mb)
Winds: variable direction winds at 3 MPH (3 knots; 1.5 m/s)
Visibility: 6 or more miles (10+ km)
Ceiling: ceiling and visibility are OK
Clouds: unknown
Weather: no significant weather observed at this time

METAR text: LQSA 211130Z VRB02KT CAVOK 19/00 Q1021 NOSIG
Conditions at: LQSA (SARAJEVO/BUTMIR , CS) observed 1130 UTC 21 April 2019
Temperature: 19.0°C (66°F)
Dewpoint: 0.0°C (32°F) [RH = 28%]
Pressure (altimeter): 30.15 inches Hg (1021.0 mb)
Winds: variable direction winds at 2 MPH (2 knots; 1.0 m/s)
Visibility: 6 or more miles (10+ km)
Ceiling: ceiling and visibility are OK
Clouds: unknown
Weather: no significant weather observed at this time

METAR text: LQSA 211100Z 21003KT 150V280 CAVOK 17/00 Q1022 NOSIG
Conditions at: LQSA (SARAJEVO/BUTMIR , CS) observed 1100 UTC 21 April 2019
Temperature: 17.0°C (63°F)
Dewpoint: 0.0°C (32°F) [RH = 32%]
Pressure (altimeter): 30.18 inches Hg (1022.0 mb)
Winds: from the SSW (210 degrees) at 3 MPH (3 knots; 1.5 m/s)
Visibility: 6 or more miles (10+ km)
Ceiling: ceiling and visibility are OK
Clouds: unknown
Weather: no significant weather observed at this time

METAR text: LQSA 211030Z VRB01KT CAVOK 17/02 Q1022 NOSIG
Conditions at: LQSA (SARAJEVO/BUTMIR , CS) observed 1030 UTC 21 April 2019
Temperature: 17.0°C (63°F)
Dewpoint: 2.0°C (36°F) [RH = 36%]
Pressure (altimeter): 30.18 inches Hg (1022.0 mb)
Winds: variable direction winds at 1 MPH (1 knots; 0.5 m/s)
Visibility: 6 or more miles (10+ km)
Ceiling: ceiling and visibility are OK
Clouds: unknown
Weather: no significant weather observed at this time

METAR text: LQSA 211000Z VRB02KT CAVOK 15/01 Q1023 NOSIG
Conditions at: LQSA (SARAJEVO/BUTMIR , CS) observed 1000 UTC 21 April 2019
Temperature: 15.0°C (59°F)
Dewpoint: 1.0°C (34°F) [RH = 39%]
Pressure (altimeter): 30.21 inches Hg (1023.0 mb)
Winds: variable direction winds at 2 MPH (2 knots; 1.0 m/s)
Visibility: 6 or more miles (10+ km)
Ceiling: ceiling and visibility are OK
Clouds: unknown
Weather: no significant weather observed at this time

METAR text: LQSA 210930Z VRB02KT CAVOK 14/01 Q1023 NOSIG
Conditions at: LQSA (SARAJEVO/BUTMIR , CS) observed 0930 UTC 21 April 2019
Temperature: 14.0°C (57°F)
Dewpoint: 1.0°C (34°F) [RH = 41%]
Pressure (altimeter): 30.21 inches Hg (1023.0 mb)
Winds: variable direction winds at 2 MPH (2 knots; 1.0 m/s)
Visibility: 6 or more miles (10+ km)
Ceiling: ceiling and visibility are OK
Clouds: unknown
Weather: no significant weather observed at this time

METAR text: LQSA 210900Z VRB01KT CAVOK 13/03 Q1024 NOSIG
Conditions at: LQSA (SARAJEVO/BUTMIR , CS) observed 0900 UTC 21 April 2019
Temperature: 13.0°C (55°F)
Dewpoint: 3.0°C (37°F) [RH = 51%]
Pressure (altimeter): 30.24 inches Hg (1024.0 mb)
Winds: variable direction winds at 1 MPH (1 knots; 0.5 m/s)
Visibility: 6 or more miles (10+ km)
Ceiling: ceiling and visibility are OK
Clouds: unknown
Weather: no significant weather observed at this time

METAR text: LQSA 210830Z VRB01KT CAVOK 11/03 Q1024 NOSIG
Conditions at: LQSA (SARAJEVO/BUTMIR , CS) observed 0830 UTC 21 April 2019
Temperature: 11.0°C (52°F)
Dewpoint: 3.0°C (37°F) [RH = 58%]
Pressure (altimeter): 30.24 inches Hg (1024.0 mb)
Winds: variable direction winds at 1 MPH (1 knots; 0.5 m/s)
Visibility: 6 or more miles (10+ km)
Ceiling: ceiling and visibility are OK
Clouds: unknown
Weather: no significant weather observed at this time

METAR text: LQSA 210800Z VRB01KT CAVOK 10/02 Q1024 NOSIG
Conditions at: LQSA (SARAJEVO/BUTMIR , CS) observed 0800 UTC 21 April 2019
Temperature: 10.0°C (50°F)
Dewpoint: 2.0°C (36°F) [RH = 57%]
Pressure (altimeter): 30.24 inches Hg (1024.0 mb)
Winds: variable direction winds at 1 MPH (1 knots; 0.5 m/s)
Visibility: 6 or more miles (10+ km)
Ceiling: ceiling and visibility are OK
Clouds: unknown
Weather: no significant weather observed at this time

METAR text: LQSA 210730Z VRB02KT CAVOK 08/02 Q1025 NOSIG
Conditions at: LQSA (SARAJEVO/BUTMIR , CS) observed 0730 UTC 21 April 2019
Temperature: 8.0°C (46°F)
Dewpoint: 2.0°C (36°F) [RH = 66%]
Pressure (altimeter): 30.27 inches Hg (1025.0 mb)
Winds: variable direction winds at 2 MPH (2 knots; 1.0 m/s)
Visibility: 6 or more miles (10+ km)
Ceiling: ceiling and visibility are OK
Clouds: unknown
Weather: no significant weather observed at this time

METAR text: LQSA 210700Z VRB01KT CAVOK 07/03 Q1025 NOSIG
Conditions at: LQSA (SARAJEVO/BUTMIR , CS) observed 0700 UTC 21 April 2019
Temperature: 7.0°C (45°F)
Dewpoint: 3.0°C (37°F) [RH = 76%]
Pressure (altimeter): 30.27 inches Hg (1025.0 mb)
Winds: variable direction winds at 1 MPH (1 knots; 0.5 m/s)
Visibility: 6 or more miles (10+ km)
Ceiling: ceiling and visibility are OK
Clouds: unknown
Weather: no significant weather observed at this time

METAR text: LQSA 210630Z VRB02KT CAVOK 06/03 Q1025 NOSIG
Conditions at: LQSA (SARAJEVO/BUTMIR , CS) observed 0630 UTC 21 April 2019
Temperature: 6.0°C (43°F)
Dewpoint: 3.0°C (37°F) [RH = 81%]
Pressure (altimeter): 30.27 inches Hg (1025.0 mb)
Winds: variable direction winds at 2 MPH (2 knots; 1.0 m/s)
Visibility: 6 or more miles (10+ km)
Ceiling: ceiling and visibility are OK
Clouds: unknown
Weather: no significant weather observed at this time

METAR text: LQSA 210600Z VRB01KT CAVOK 04/04 Q1026 NOSIG
Conditions at: LQSA (SARAJEVO/BUTMIR , CS) observed 0600 UTC 21 April 2019
Temperature: 4.0°C (39°F)
Dewpoint: 4.0°C (39°F) [RH = 100%]
Pressure (altimeter): 30.30 inches Hg (1026.0 mb)
Winds: variable direction winds at 1 MPH (1 knots; 0.5 m/s)
Visibility: 6 or more miles (10+ km)
Ceiling: ceiling and visibility are OK
Clouds: unknown
Weather: no significant weather observed at this time

METAR text: LQSA 210530Z VRB01KT CAVOK 03/03 Q1026 NOSIG
Conditions at: LQSA (SARAJEVO/BUTMIR , CS) observed 0530 UTC 21 April 2019
Temperature: 3.0°C (37°F)
Dewpoint: 3.0°C (37°F) [RH = 100%]
Pressure (altimeter): 30.30 inches Hg (1026.0 mb)
Winds: variable direction winds at 1 MPH (1 knots; 0.5 m/s)
Visibility: 6 or more miles (10+ km)
Ceiling: ceiling and visibility are OK
Clouds: unknown
Weather: no significant weather observed at this time

METAR text: LQSA 210500Z VRB01KT CAVOK 02/02 Q1026 NOSIG
Conditions at: LQSA (SARAJEVO/BUTMIR , CS) observed 0500 UTC 21 April 2019
Temperature: 2.0°C (36°F)
Dewpoint: 2.0°C (36°F) [RH = 100%]
Pressure (altimeter): 30.30 inches Hg (1026.0 mb)
Winds: variable direction winds at 1 MPH (1 knots; 0.5 m/s)
Visibility: 6 or more miles (10+ km)
Ceiling: ceiling and visibility are OK
Clouds: unknown
Weather: no significant weather observed at this time

METAR text: LQSA 210430Z VRB01KT CAVOK 00/00 Q1026 NOSIG
Conditions at: LQSA (SARAJEVO/BUTMIR , CS) observed 0430 UTC 21 April 2019
Temperature: 0.0°C (32°F)
Dewpoint: 0.0°C (32°F) [RH = 100%]
Pressure (altimeter): 30.30 inches Hg (1026.0 mb)
Winds: variable direction winds at 1 MPH (1 knots; 0.5 m/s)
Visibility: 6 or more miles (10+ km)
Ceiling: ceiling and visibility are OK
Clouds: unknown
Weather: no significant weather observed at this time

METAR text: LQSA 210400Z VRB01KT CAVOK 00/00 Q1025
Conditions at: LQSA (SARAJEVO/BUTMIR , CS) observed 0400 UTC 21 April 2019
Temperature: 0.0°C (32°F)
Dewpoint: 0.0°C (32°F) [RH = 100%]
Pressure (altimeter): 30.27 inches Hg (1025.0 mb)
Winds: variable direction winds at 1 MPH (1 knots; 0.5 m/s)
Visibility: 6 or more miles (10+ km)
Ceiling: ceiling and visibility are OK
Clouds: unknown
Weather: no significant weather observed at this time

METAR text: LQSA 210330Z 12003KT CAVOK 00/00 Q1026
Conditions at: LQSA (SARAJEVO/BUTMIR , CS) observed 0330 UTC 21 April 2019
Temperature: 0.0°C (32°F)
Dewpoint: 0.0°C (32°F) [RH = 100%]
Pressure (altimeter): 30.30 inches Hg (1026.0 mb)
Winds: from the ESE (120 degrees) at 3 MPH (3 knots; 1.5 m/s)
Visibility: 6 or more miles (10+ km)
Ceiling: ceiling and visibility are OK
Clouds: unknown
Weather: no significant weather observed at this time

METAR text: LQSA 210300Z 25002KT CAVOK 01/01 Q1026
Conditions at: LQSA (SARAJEVO/BUTMIR , CS) observed 0300 UTC 21 April 2019
Temperature: 1.0°C (34°F)
Dewpoint: 1.0°C (34°F) [RH = 100%]
Pressure (altimeter): 30.30 inches Hg (1026.0 mb)
Winds: from the WSW (250 degrees) at 2 MPH (2 knots; 1.0 m/s)
Visibility: 6 or more miles (10+ km)
Ceiling: ceiling and visibility are OK
Clouds: unknown
Weather: no significant weather observed at this time

METAR text: LQSA 210200Z 22002KT CAVOK 02/02 Q1026
Conditions at: LQSA (SARAJEVO/BUTMIR , CS) observed 0200 UTC 21 April 2019
Temperature: 2.0°C (36°F)
Dewpoint: 2.0°C (36°F) [RH = 100%]
Pressure (altimeter): 30.30 inches Hg (1026.0 mb)
Winds: from the SW (220 degrees) at 2 MPH (2 knots; 1.0 m/s)
Visibility: 6 or more miles (10+ km)
Ceiling: ceiling and visibility are OK
Clouds: unknown
Weather: no significant weather observed at this time

METAR text: LQSA 210100Z 15003KT CAVOK 03/02 Q1026
Conditions at: LQSA (SARAJEVO/BUTMIR , CS) observed 0100 UTC 21 April 2019
Temperature: 3.0°C (37°F)
Dewpoint: 2.0°C (36°F) [RH = 93%]
Pressure (altimeter): 30.30 inches Hg (1026.0 mb)
Winds: from the SSE (150 degrees) at 3 MPH (3 knots; 1.5 m/s)
Visibility: 6 or more miles (10+ km)
Ceiling: ceiling and visibility are OK
Clouds: unknown
Weather: no significant weather observed at this time

METAR text: LQSA 210000Z 14002KT CAVOK 03/01 Q1027
Conditions at: LQSA (SARAJEVO/BUTMIR , CS) observed 0000 UTC 21 April 2019
Temperature: 3.0°C (37°F)
Dewpoint: 1.0°C (34°F) [RH = 87%]
Pressure (altimeter): 30.32 inches Hg (1027.0 mb)
Winds: from the SE (140 degrees) at 2 MPH (2 knots; 1.0 m/s)
Visibility: 6 or more miles (10+ km)
Ceiling: ceiling and visibility are OK
Clouds: unknown
Weather: no significant weather observed at this time

METAR text: LQSA 202300Z 17002KT CAVOK 04/01 Q1027
Conditions at: LQSA (SARAJEVO/BUTMIR , CS) observed 2300 UTC 20 April 2019
Temperature: 4.0°C (39°F)
Dewpoint: 1.0°C (34°F) [RH = 81%]
Pressure (altimeter): 30.32 inches Hg (1027.0 mb)
Winds: from the S (170 degrees) at 2 MPH (2 knots; 1.0 m/s)
Visibility: 6 or more miles (10+ km)
Ceiling: ceiling and visibility are OK
Clouds: unknown
Weather: no significant weather observed at this time

METAR text: LQSA 202200Z VRB02KT CAVOK 05/01 Q1027
Conditions at: LQSA (SARAJEVO/BUTMIR , CS) observed 2200 UTC 20 April 2019
Temperature: 5.0°C (41°F)
Dewpoint: 1.0°C (34°F) [RH = 75%]
Pressure (altimeter): 30.32 inches Hg (1027.0 mb)
Winds: variable direction winds at 2 MPH (2 knots; 1.0 m/s)
Visibility: 6 or more miles (10+ km)
Ceiling: ceiling and visibility are OK
Clouds: unknown
Weather: no significant weather observed at this time

METAR text: LQSA 202100Z VRB02KT CAVOK 07/M00 Q1027
Conditions at: LQSA (SARAJEVO/BUTMIR , CS) observed 2100 UTC 20 April 2019
Temperature: 7.0°C (45°F)
Dewpoint: 0.0°C (32°F) [RH = 61%]
Pressure (altimeter): 30.32 inches Hg (1027.0 mb)
Winds: variable direction winds at 2 MPH (2 knots; 1.0 m/s)
Visibility: 6 or more miles (10+ km)
Ceiling: ceiling and visibility are OK
Clouds: unknown
Weather: no significant weather observed at this time

METAR text: LQSA 202030Z VRB02KT CAVOK 08/M00 Q1027
Conditions at: LQSA (SARAJEVO/BUTMIR , CS) observed 2030 UTC 20 April 2019
Temperature: 8.0°C (46°F)
Dewpoint: 0.0°C (32°F) [RH = 57%]
Pressure (altimeter): 30.32 inches Hg (1027.0 mb)
Winds: variable direction winds at 2 MPH (2 knots; 1.0 m/s)
Visibility: 6 or more miles (10+ km)
Ceiling: ceiling and visibility are OK
Clouds: unknown
Weather: no significant weather observed at this time

METAR text: LQSA 202000Z VRB02KT CAVOK 09/M00 Q1027
Conditions at: LQSA (SARAJEVO/BUTMIR , CS) observed 2000 UTC 20 April 2019
Temperature: 9.0°C (48°F)
Dewpoint: 0.0°C (32°F) [RH = 53%]
Pressure (altimeter): 30.32 inches Hg (1027.0 mb)
Winds: variable direction winds at 2 MPH (2 knots; 1.0 m/s)
Visibility: 6 or more miles (10+ km)
Ceiling: ceiling and visibility are OK
Clouds: unknown
Weather: no significant weather observed at this time

METAR text: LQSA 201930Z 05003KT 350V110 CAVOK 12/M01 Q1026
Conditions at: LQSA (SARAJEVO/BUTMIR , CS) observed 1930 UTC 20 April 2019
Temperature: 12.0°C (54°F)
Dewpoint: -1.0°C (30°F) [RH = 40%]
Pressure (altimeter): 30.30 inches Hg (1026.0 mb)
Winds: from the NE (50 degrees) at 3 MPH (3 knots; 1.5 m/s)
Visibility: 6 or more miles (10+ km)
Ceiling: ceiling and visibility are OK
Clouds: unknown
Weather: no significant weather observed at this time

METAR text: LQSA 201900Z 05004KT 350V110 CAVOK 12/M01 Q1026
Conditions at: LQSA (SARAJEVO/BUTMIR , CS) observed 1900 UTC 20 April 2019
Temperature: 12.0°C (54°F)
Dewpoint: -1.0°C (30°F) [RH = 40%]
Pressure (altimeter): 30.30 inches Hg (1026.0 mb)
Winds: from the NE (50 degrees) at 5 MPH (4 knots; 2.1 m/s)
Visibility: 6 or more miles (10+ km)
Ceiling: ceiling and visibility are OK
Clouds: unknown
Weather: no significant weather observed at this time

METAR text: LQSA 201830Z 07003KT 020V130 CAVOK 13/M02 Q1026
Conditions at: LQSA (SARAJEVO/BUTMIR , CS) observed 1830 UTC 20 April 2019
Temperature: 13.0°C (55°F)
Dewpoint: -2.0°C (28°F) [RH = 35%]
Pressure (altimeter): 30.30 inches Hg (1026.0 mb)
Winds: from the ENE (70 degrees) at 3 MPH (3 knots; 1.5 m/s)
Visibility: 6 or more miles (10+ km)
Ceiling: ceiling and visibility are OK
Clouds: unknown
Weather: no significant weather observed at this time

METAR text: LQSA 201800Z 05003KT 010V100 CAVOK 14/M01 Q1026
Conditions at: LQSA (SARAJEVO/BUTMIR , CS) observed 1800 UTC 20 April 2019
Temperature: 14.0°C (57°F)
Dewpoint: -1.0°C (30°F) [RH = 36%]
Pressure (altimeter): 30.30 inches Hg (1026.0 mb)
Winds: from the NE (50 degrees) at 3 MPH (3 knots; 1.5 m/s)
Visibility: 6 or more miles (10+ km)
Ceiling: ceiling and visibility are OK
Clouds: unknown
Weather: no significant weather observed at this time

METAR text: LQSA 201730Z 04006KT 360V090 CAVOK 15/M01 Q1025
Conditions at: LQSA (SARAJEVO/BUTMIR , CS) observed 1730 UTC 20 April 2019
Temperature: 15.0°C (59°F)
Dewpoint: -1.0°C (30°F) [RH = 33%]
Pressure (altimeter): 30.27 inches Hg (1025.0 mb)
Winds: from the NE (40 degrees) at 7 MPH (6 knots; 3.1 m/s)
Visibility: 6 or more miles (10+ km)
Ceiling: ceiling and visibility are OK
Clouds: unknown
Weather: no significant weather observed at this time

METAR text: LQSA 201700Z 04006KT 320V080 CAVOK 16/M02 Q1025 NOSIG
Conditions at: LQSA (SARAJEVO/BUTMIR , CS) observed 1700 UTC 20 April 2019
Temperature: 16.0°C (61°F)
Dewpoint: -2.0°C (28°F) [RH = 29%]
Pressure (altimeter): 30.27 inches Hg (1025.0 mb)
Winds: from the NE (40 degrees) at 7 MPH (6 knots; 3.1 m/s)
Visibility: 6 or more miles (10+ km)
Ceiling: ceiling and visibility are OK
Clouds: unknown
Weather: no significant weather observed at this time

METAR text: LQSA 201630Z 04006KT 330V100 CAVOK 17/M04 Q1025 NOSIG
Conditions at: LQSA (SARAJEVO/BUTMIR , CS) observed 1630 UTC 20 April 2019
Temperature: 17.0°C (63°F)
Dewpoint: -4.0°C (25°F) [RH = 23%]
Pressure (altimeter): 30.27 inches Hg (1025.0 mb)
Winds: from the NE (40 degrees) at 7 MPH (6 knots; 3.1 m/s)
Visibility: 6 or more miles (10+ km)
Ceiling: ceiling and visibility are OK
Clouds: unknown
Weather: no significant weather observed at this time

METAR text: LQSA 201600Z VRB05KT CAVOK 18/M04 Q1025 NOSIG
Conditions at: LQSA (SARAJEVO/BUTMIR , CS) observed 1600 UTC 20 April 2019
Temperature: 18.0°C (64°F)
Dewpoint: -4.0°C (25°F) [RH = 22%]
Pressure (altimeter): 30.27 inches Hg (1025.0 mb)
Winds: variable direction winds at 6 MPH (5 knots; 2.6 m/s)
Visibility: 6 or more miles (10+ km)
Ceiling: ceiling and visibility are OK
Clouds: unknown
Weather: no significant weather observed at this time

METAR text: LQSA 201530Z 04006KT 350V100 CAVOK 18/M04 Q1025 NOSIG
Conditions at: LQSA (SARAJEVO/BUTMIR , CS) observed 1530 UTC 20 April 2019
Temperature: 18.0°C (64°F)
Dewpoint: -4.0°C (25°F) [RH = 22%]
Pressure (altimeter): 30.27 inches Hg (1025.0 mb)
Winds: from the NE (40 degrees) at 7 MPH (6 knots; 3.1 m/s)
Visibility: 6 or more miles (10+ km)
Ceiling: ceiling and visibility are OK
Clouds: unknown
Weather: no significant weather observed at this time

METAR text: LQSA 201500Z 05007KT 310V110 CAVOK 19/M04 Q1025 NOSIG
Conditions at: LQSA (SARAJEVO/BUTMIR , CS) observed 1500 UTC 20 April 2019
Temperature: 19.0°C (66°F)
Dewpoint: -4.0°C (25°F) [RH = 21%]
Pressure (altimeter): 30.27 inches Hg (1025.0 mb)
Winds: from the NE (50 degrees) at 8 MPH (7 knots; 3.6 m/s)
Visibility: 6 or more miles (10+ km)
Ceiling: ceiling and visibility are OK
Clouds: unknown
Weather: no significant weather observed at this time

Forecast for: LQSA (SARAJEVO/BUTMIR , CS)
Text: TAF LQSA 212300Z 2200/2224 VRB02KT CAVOK TX23/2214Z TN03/2204Z
Forecast period: 0000 UTC 22 April 2019 to 0000 UTC 23 April 2019
Forecast type: FROM: standard forecast or significant change
Winds: variable direction winds at 2 MPH (2 knots; 1.0 m/s)
Visibility: 6 or more miles 10+ km)
Ceiling: unknown
Clouds: missing
Weather: no significant weather forecast for this period
Text: TEMPO 2210/2224 21013KT
Forecast period: 1000 UTC 22 April 2019 to 0000 UTC 23 April 2019
Forecast type: TEMPORARY: The following changes expected for less than half the time period
Winds: from the SSW (210 degrees) at 15 MPH (13 knots; 6.7 m/s)
Visibility: missing
Ceiling: unknown
Clouds: missing
Weather: no significant weather forecast for this period
Text: PROB30
Forecast period: 1900 UTC 22 April 2019 to 0000 UTC 23 April 2019
Forecast type: TEMPORARY: The following changes expected for less than half the time period
Winds: from the S (190 degrees) at 17 MPH (15 knots; 7.7 m/s)
gusting to 29 MPH (25 knots; 12.9 m/s)
Visibility: missing
Ceiling: unknown
Clouds: missing
Weather: no significant weather forecast for this period
Text: TEMPO 2219/2224 19015G25KT
Forecast period: 2200 UTC 22 April 2019 to 0000 UTC 23 April 2019
Forecast type: TEMPORARY: The following changes expected for less than half the time period
Visibility: missing
Ceiling: unknown
Clouds: missing
Weather: RA  (moderate rain)